Airfield :
LOGIN :

Register | Disclaimer

   EN    FR    IT 

 










Legend :    VFR   Marginal VFR   IFR   Intensive IFR   Very Intensive IFR
Visi :
Ceiling :
>= 8 km
>= 3000ft
5 to 8 km
1000 to 3000 ft
1500m to 5 km
500 to 1000 ft
800 to 1500m
200 to 500 ft
< 800m
< 200 ft
Symbols :   Thunderstorms  Fog  Heavy snow  Heavy precipitations  Wind > 20 kt
SIGMETs :     Misc.  Thunderstorms  Icing  Turbulence  Mountain Waves  Volcanic Ashes






- Airport Elevation : 14 ft
- IATA code : BRE


EDDW - Bremen Neuenland

CURRENT METAR :
  • 162250Z AUTO 03004KT CAVOK 20/16 Q1011

EXPIRED METARs :
  • 162220Z AUTO 03005KT CAVOK 21/17 Q1011
  • 162150Z AUTO 04006KT CAVOK 21/17 Q1011
  • 162120Z AUTO 03007KT CAVOK 22/17 Q1010
  • 162050Z AUTO 03006KT CAVOK 22/17 Q1010 NOSIG
  • 162020Z AUTO 02009KT CAVOK 23/17 Q1010 NOSIG

TAF TAF EDDW
Valid from the 16 at 18:00 until the 17 at 18:00 UTC


161700Z 1618/1718 30005KT CAVOK
BECMG 1619/1621 VRB03KT
PROB30
TEMPO 1702/1705 0700 FG BKN001
BECMG 1707/1709 08005KT
BECMG 1714/1716 02007KT
PROB30
TEMPO 1715/1718 20015G30KT 4500 TSRA BKN040CB



MET'MAP, your aeronautical weather chart ! - Copyright ORBIFLY December 2007 - Disclaimer

ORBIFLY MET'MAP TEAM :

Programming & Development : Alexandra Zaïnal
Original concept : Baudouin d'Aumeries
Technical & hardware support : Manuel Goepfert
Assistance : Marc-Olivier Méhu




SOURCES & CREDITS :

   NOAA